Time;durP1;ratioP1;P1;durP2;ratioP2;P2;SDS_P1;SDS_P2;PMS_P1;PMS_P2;Temp;Humidity;BMP_temperature;BMP_pressure;BME280_temperature;BME280_humidity;BME280_pressure;Samples;Min_cycle;Max_cycle;Signal;HPM_P1;HPM_P2
2022/09/19 00:01:05;;;;;;;0.80;0.80;;;9.50;99.90;;;;;;5024194;28;20091;-79
2022/09/19 00:03:30;;;;;;;0.98;0.70;;;9.50;99.90;;;;;;5020407;28;20022;-80
2022/09/19 00:05:56;;;;;;;1.08;0.68;;;9.40;99.90;;;;;;5020156;28;20346;-80
2022/09/19 00:08:22;;;;;;;0.85;0.80;;;9.20;99.90;;;;;;5023019;28;20018;-80
2022/09/19 00:10:47;;;;;;;1.58;0.77;;;9.20;99.90;;;;;;5025136;28;20029;-81
2022/09/19 00:13:13;;;;;;;1.20;0.90;;;9.20;99.90;;;;;;5021484;28;20090;-81
2022/09/19 00:15:47;;;;;;;5.13;0.82;;;9.20;99.90;;;;;;5023568;28;20065;-81
2022/09/19 00:18:13;;;;;;;1.80;0.60;;;9.30;99.90;;;;;;5022539;28;20151;-80
2022/09/19 00:20:39;;;;;;;1.38;0.70;;;9.30;99.90;;;;;;5020175;28;20400;-81
2022/09/19 00:26:01;;;;;;;2.60;0.80;;;9.30;99.90;;;;;;5024610;28;20091;-81
2022/09/19 00:28:27;;;;;;;4.60;1.00;;;9.40;99.90;;;;;;5022601;28;20747;-82
2022/09/19 00:30:54;;;;;;;2.40;0.98;;;9.40;99.90;;;;;;5018495;28;20029;-80
2022/09/19 00:33:21;;;;;;;8.48;1.05;;;9.30;99.90;;;;;;5024573;28;20036;-81
2022/09/19 00:35:54;;;;;;;1.42;1.02;;;9.30;99.90;;;;;;5026414;28;20096;-81
2022/09/19 00:38:29;;;;;;;0.90;0.88;;;9.30;99.90;;;;;;5026172;28;20033;-80
2022/09/19 00:40:55;;;;;;;2.40;1.20;;;9.40;99.90;;;;;;5026143;28;20407;-81
2022/09/19 00:43:22;;;;;;;1.20;1.10;;;9.50;99.90;;;;;;5021491;28;20049;-81
2022/09/19 00:45:48;;;;;;;2.45;1.05;;;9.40;99.90;;;;;;5016474;28;20054;-80
2022/09/19 00:48:16;;;;;;;2.75;1.02;;;9.40;99.90;;;;;;5027167;28;20064;-82
2022/09/19 00:50:45;;;;;;;1.20;0.95;;;9.50;99.90;;;;;;5027241;28;20029;-82
2022/09/19 00:53:15;;;;;;;1.42;0.93;;;9.50;99.90;;;;;;5025652;28;20030;-81
2022/09/19 00:55:41;;;;;;;2.13;1.13;;;9.40;99.90;;;;;;5024659;28;20444;-81
2022/09/19 00:58:18;;;;;;;4.15;0.75;;;9.40;99.90;;;;;;5029328;28;20029;-82
2022/09/19 01:00:44;;;;;;;1.27;1.00;;;9.30;99.90;;;;;;5018010;28;20026;-81
2022/09/19 01:03:09;;;;;;;1.08;1.00;;;9.20;99.90;;;;;;5022276;28;20118;-76
2022/09/19 01:05:55;;;;;;;1.90;0.88;;;9.30;99.90;;;;;;5020087;28;20028;-76
2022/09/19 01:08:58;;;;;;;6.00;1.40;;;9.40;99.90;;;;;;5021896;28;20045;-77
2022/09/19 01:11:42;;;;;;;1.92;1.45;;;9.40;99.90;;;;;;4975897;28;20041;-76
2022/09/19 01:14:39;;;;;;;1.75;1.23;;;9.40;99.90;;;;;;5029264;28;20105;-76
2022/09/19 01:17:42;;;;;;;2.60;1.00;;;9.30;99.90;;;;;;5027384;28;20034;-76
2022/09/19 01:21:37;;;;;;;1.92;1.30;;;9.20;99.90;;;;;;5022942;28;20099;-77
2022/09/19 01:24:19;;;;;;;2.72;1.08;;;9.20;99.90;;;;;;5009422;28;20535;-76
2022/09/19 01:27:00;;;;;;;3.45;0.93;;;9.10;99.90;;;;;;5024137;28;20040;-76
2022/09/19 01:29:32;;;;;;;3.03;1.40;;;9.00;99.90;;;;;;5027278;28;20021;-76
2022/09/19 01:31:59;;;;;;;1.83;0.90;;;9.10;99.90;;;;;;5022683;28;20036;-76
2022/09/19 01:34:31;;;;;;;1.85;1.23;;;9.00;99.90;;;;;;5026908;28;20025;-76
2022/09/19 01:37:07;;;;;;;4.25;1.00;;;9.00;99.90;;;;;;5026804;28;20037;-77
2022/09/19 01:39:36;;;;;;;1.63;1.30;;;9.10;99.90;;;;;;5023955;28;20064;-76
2022/09/19 01:42:01;;;;;;;2.03;1.10;;;9.00;99.90;;;;;;5006177;28;20488;-76
2022/09/19 01:44:29;;;;;;;1.80;1.10;;;9.00;99.90;;;;;;5026164;28;20064;-77
2022/09/19 01:47:09;;;;;;;4.15;1.02;;;8.90;99.90;;;;;;5028685;28;20030;-77
2022/09/19 01:49:59;;;;;;;2.70;0.85;;;9.00;99.90;;;;;;5026707;28;20028;-76
2022/09/19 01:52:48;;;;;;;1.73;0.88;;;9.00;99.90;;;;;;5009172;28;20033;-76
2022/09/19 01:55:30;;;;;;;2.53;1.08;;;9.10;99.90;;;;;;5027792;28;20425;-77
2022/09/19 01:58:34;;;;;;;2.03;1.52;;;9.10;99.90;;;;;;5026818;28;20030;-76
2022/09/19 02:01:08;;;;;;;1.10;0.95;;;9.10;99.90;;;;;;5036462;28;20100;-76
2022/09/19 02:03:48;;;;;;;4.07;1.40;;;9.10;99.90;;;;;;5032251;28;20029;-76
2022/09/19 02:06:48;;;;;;;1.90;1.00;;;9.10;99.90;;;;;;5028337;28;20049;-76
2022/09/19 02:09:43;;;;;;;3.30;1.58;;;9.20;99.90;;;;;;5029171;28;20111;-76
2022/09/19 02:12:12;;;;;;;2.13;1.27;;;9.20;99.90;;;;;;5024913;28;20083;-76
2022/09/19 02:14:41;;;;;;;1.92;1.38;;;9.30;99.90;;;;;;5023076;28;20654;-76
2022/09/19 02:17:11;;;;;;;3.45;1.20;;;9.30;99.90;;;;;;5027725;28;20029;-75
2022/09/19 02:19:43;;;;;;;2.58;1.20;;;9.30;99.90;;;;;;5023930;28;20041;-76
2022/09/19 02:22:26;;;;;;;1.67;1.20;;;9.40;99.90;;;;;;5028116;28;20439;-76
2022/09/19 02:24:58;;;;;;;4.25;1.27;;;9.50;99.90;;;;;;5024663;28;20037;-76
2022/09/19 02:27:29;;;;;;;2.22;1.42;;;9.50;99.90;;;;;;5024665;28;20173;-76
2022/09/19 02:30:00;;;;;;;2.03;1.40;;;9.30;99.90;;;;;;5025570;28;20021;-77
2022/09/19 02:32:26;;;;;;;4.87;1.90;;;9.30;99.90;;;;;;5027887;28;20053;-76
2022/09/19 02:34:55;;;;;;;1.45;1.35;;;9.20;99.90;;;;;;5029469;28;20272;-76
2022/09/19 02:37:44;;;;;;;5.13;1.88;;;9.30;99.90;;;;;;5018511;28;20041;-76
2022/09/19 02:40:16;;;;;;;2.95;1.70;;;9.40;99.90;;;;;;5025608;28;20026;-76
2022/09/19 02:42:49;;;;;;;2.53;1.45;;;9.30;99.90;;;;;;5019919;28;20215;-76
2022/09/19 02:45:32;;;;;;;1.85;1.38;;;9.30;99.90;;;;;;5026104;28;20034;-76
2022/09/19 02:48:07;;;;;;;2.00;1.67;;;9.30;99.90;;;;;;5018846;28;20168;-75
2022/09/19 02:50:36;;;;;;;3.55;1.50;;;9.10;99.90;;;;;;5020696;28;20026;-75
2022/09/19 02:53:05;;;;;;;3.83;1.92;;;9.20;99.90;;;;;;5027177;28;20072;-76
2022/09/19 02:55:39;;;;;;;2.75;2.17;;;9.20;99.90;;;;;;5009864;28;20025;-76
2022/09/19 02:58:05;;;;;;;4.93;1.83;;;9.40;99.90;;;;;;5009061;28;20034;-76
2022/09/19 03:00:33;;;;;;;2.47;1.20;;;9.30;99.90;;;;;;5019923;28;20018;-76
2022/09/19 03:05:59;;;;;;;2.88;1.67;;;9.20;99.90;;;;;;5027767;28;20063;-76
2022/09/19 03:08:26;;;;;;;4.90;1.67;;;9.20;99.90;;;;;;5025146;28;20112;-77
2022/09/19 03:10:56;;;;;;;3.38;1.42;;;9.30;99.90;;;;;;5020192;28;20030;-79
2022/09/19 03:13:24;;;;;;;2.67;1.73;;;9.30;99.90;;;;;;5024022;28;20029;-80
2022/09/19 03:16:06;;;;;;;2.28;1.50;;;9.40;99.90;;;;;;5020959;28;20030;-77
2022/09/19 03:18:33;;;;;;;2.50;1.52;;;9.40;99.90;;;;;;5020449;28;20467;-77
2022/09/19 03:21:03;;;;;;;1.98;1.45;;;9.50;99.90;;;;;;5018787;28;20038;-75
2022/09/19 03:23:45;;;;;;;2.08;1.67;;;9.60;99.90;;;;;;5018222;28;20021;-77
2022/09/19 03:26:13;;;;;;;2.42;1.48;;;9.60;99.90;;;;;;5017545;28;20045;-75
2022/09/19 03:28:39;;;;;;;3.00;1.60;;;9.60;99.90;;;;;;5022117;28;20116;-76
2022/09/19 03:31:06;;;;;;;4.82;1.45;;;9.70;99.90;;;;;;5021414;28;20576;-82
2022/09/19 03:33:33;;;;;;;3.13;1.58;;;9.60;99.90;;;;;;5020932;28;20021;-80
2022/09/19 03:36:07;;;;;;;2.75;1.77;;;9.70;99.90;;;;;;5020412;28;20147;-81
2022/09/19 03:38:35;;;;;;;2.47;1.70;;;9.60;99.90;;;;;;5023604;28;20511;-83
2022/09/19 03:41:00;;;;;;;3.40;1.50;;;9.70;99.90;;;;;;5020319;28;20271;-78
2022/09/19 03:43:28;;;;;;;3.03;1.40;;;9.80;99.90;;;;;;5021335;28;20100;-76
2022/09/19 03:45:54;;;;;;;3.80;2.15;;;9.70;99.90;;;;;;5023338;28;20021;-76
2022/09/19 03:48:20;;;;;;;3.20;1.50;;;9.70;99.90;;;;;;5028001;28;20024;-76
2022/09/19 03:50:46;;;;;;;4.18;1.50;;;9.80;99.90;;;;;;5026120;28;20022;-77
2022/09/19 03:53:11;;;;;;;4.65;1.63;;;9.60;99.90;;;;;;5024490;28;20040;-77
2022/09/19 03:55:37;;;;;;;3.22;1.80;;;9.70;99.90;;;;;;5022498;28;20057;-76
2022/09/19 03:58:04;;;;;;;2.08;1.65;;;9.80;99.90;;;;;;5026987;28;20017;-77
2022/09/19 04:00:30;;;;;;;4.80;1.67;;;9.70;99.90;;;;;;5024161;28;20033;-77
2022/09/19 04:02:56;;;;;;;2.17;1.40;;;9.70;99.90;;;;;;5021326;28;20032;-77
2022/09/19 04:05:22;;;;;;;3.78;2.20;;;9.80;99.90;;;;;;5025127;28;20073;-77
2022/09/19 04:07:48;;;;;;;5.43;1.85;;;9.80;99.90;;;;;;5027835;28;20041;-77
2022/09/19 04:10:13;;;;;;;3.97;1.63;;;9.80;99.90;;;;;;5027456;28;20053;-76
2022/09/19 04:12:39;;;;;;;2.85;1.75;;;9.80;99.90;;;;;;5019187;28;20083;-76
2022/09/19 04:15:05;;;;;;;2.95;1.88;;;9.80;99.90;;;;;;5021683;28;20033;-76
2022/09/19 04:17:31;;;;;;;2.58;1.83;;;9.70;99.90;;;;;;5024725;28;20435;-77
2022/09/19 04:19:57;;;;;;;5.80;1.92;;;9.70;99.90;;;;;;5027267;28;20053;-77
2022/09/19 04:22:22;;;;;;;3.75;1.85;;;9.70;99.90;;;;;;5022351;28;20037;-76
2022/09/19 04:24:48;;;;;;;2.30;1.90;;;9.70;99.90;;;;;;5019618;28;20155;-76
2022/09/19 04:27:14;;;;;;;3.63;2.05;;;9.70;99.90;;;;;;5023750;28;20025;-76
2022/09/19 04:29:40;;;;;;;3.17;2.15;;;9.70;99.90;;;;;;5027619;28;20037;-77
2022/09/19 04:32:06;;;;;;;2.58;1.80;;;9.80;99.90;;;;;;5021008;28;20022;-77
2022/09/19 04:34:33;;;;;;;2.53;2.15;;;9.80;99.90;;;;;;5021922;28;20505;-77
2022/09/19 04:37:02;;;;;;;3.17;1.98;;;9.80;99.90;;;;;;5024961;28;20030;-76
2022/09/19 04:39:28;;;;;;;6.50;2.20;;;9.80;99.90;;;;;;5018043;28;20033;-77
2022/09/19 04:41:53;;;;;;;3.05;1.80;;;9.80;99.90;;;;;;5024124;28;20033;-77
2022/09/19 04:44:25;;;;;;;2.75;1.58;;;9.90;99.90;;;;;;5029198;28;20057;-77
2022/09/19 04:46:51;;;;;;;2.60;1.85;;;9.90;99.90;;;;;;5026693;28;20080;-77
2022/09/19 04:49:17;;;;;;;1.80;1.42;;;9.90;99.90;;;;;;5025979;28;20029;-77
2022/09/19 04:51:43;;;;;;;3.38;2.03;;;9.90;99.90;;;;;;5025704;28;20025;-76
2022/09/19 04:54:10;;;;;;;2.92;1.80;;;9.90;99.90;;;;;;5024939;28;20021;-76
2022/09/19 04:56:35;;;;;;;3.83;2.30;;;9.80;99.90;;;;;;5025834;28;20033;-77
2022/09/19 04:59:02;;;;;;;4.00;1.95;;;9.80;99.90;;;;;;5026284;28;21496;-77
2022/09/19 05:01:30;;;;;;;4.88;2.17;;;9.90;99.90;;;;;;5026789;28;20365;-76
2022/09/19 05:03:56;;;;;;;2.65;1.92;;;10.00;99.90;;;;;;5025437;28;20042;-76
2022/09/19 05:06:21;;;;;;;2.90;1.92;;;10.00;99.90;;;;;;5027631;28;20033;-76
2022/09/19 05:08:47;;;;;;;2.10;1.60;;;9.90;99.90;;;;;;5030266;28;20121;-77
2022/09/19 05:11:12;;;;;;;3.72;1.58;;;10.00;99.90;;;;;;5028300;28;20022;-76
2022/09/19 05:13:38;;;;;;;3.47;2.55;;;10.20;99.90;;;;;;5029500;28;20029;-76
2022/09/19 05:16:05;;;;;;;2.92;2.03;;;10.10;99.90;;;;;;5024453;28;20112;-77
2022/09/19 05:18:34;;;;;;;2.65;1.95;;;10.20;99.90;;;;;;5028863;28;20068;-77
2022/09/19 05:21:03;;;;;;;5.18;1.98;;;10.30;99.90;;;;;;5029589;28;20546;-76
2022/09/19 05:23:29;;;;;;;2.55;1.70;;;10.40;99.90;;;;;;5026316;28;20034;-76
2022/09/19 05:25:55;;;;;;;4.03;2.20;;;10.30;99.90;;;;;;5028336;28;20025;-76
2022/09/19 05:28:27;;;;;;;3.80;1.88;;;10.40;99.90;;;;;;5025970;28;20026;-77
2022/09/19 05:30:54;;;;;;;3.90;2.20;;;10.30;99.90;;;;;;5025804;28;20033;-77
2022/09/19 05:33:23;;;;;;;3.28;1.98;;;10.30;99.90;;;;;;5024525;28;20437;-77
2022/09/19 05:35:50;;;;;;;3.38;2.40;;;10.40;99.90;;;;;;5022869;28;20034;-77
2022/09/19 05:38:15;;;;;;;2.95;1.77;;;10.60;99.90;;;;;;5024969;28;20341;-76
2022/09/19 05:40:41;;;;;;;2.47;1.75;;;10.60;99.90;;;;;;5020170;28;20060;-74
2022/09/19 05:43:06;;;;;;;4.57;2.22;;;10.50;99.90;;;;;;5026191;28;20084;-76
2022/09/19 05:45:32;;;;;;;2.67;1.80;;;10.60;99.90;;;;;;5019955;28;20033;-76
2022/09/19 05:48:04;;;;;;;2.85;1.55;;;10.60;99.90;;;;;;5029070;28;20039;-77
2022/09/19 05:50:29;;;;;;;2.20;1.48;;;10.70;99.90;;;;;;5019404;28;20021;-77
2022/09/19 05:55:40;;;;;;;2.25;1.60;;;10.70;99.90;;;;;;5028675;28;20040;-77
2022/09/19 05:58:06;;;;;;;5.63;1.73;;;10.70;99.90;;;;;;5027521;28;20418;-77
2022/09/19 06:00:32;;;;;;;2.72;1.85;;;10.60;99.90;;;;;;5033652;28;20033;-77
2022/09/19 06:03:02;;;;;;;2.75;1.88;;;10.70;99.90;;;;;;5034379;28;20025;-77
2022/09/19 06:05:36;;;;;;;2.47;1.80;;;10.70;99.90;;;;;;5029275;28;20024;-77
2022/09/19 06:08:04;;;;;;;2.45;1.83;;;10.80;99.90;;;;;;5032425;28;20279;-77
2022/09/19 06:10:34;;;;;;;5.38;1.92;;;10.80;99.90;;;;;;5033789;28;20091;-78
2022/09/19 06:13:02;;;;;;;2.67;1.90;;;10.90;99.90;;;;;;5034896;28;20632;-77
2022/09/19 06:15:28;;;;;;;5.15;1.77;;;10.90;99.90;;;;;;5031271;28;20071;-76
2022/09/19 06:17:55;;;;;;;2.15;1.80;;;10.90;99.90;;;;;;5031881;28;20033;-77
2022/09/19 06:20:20;;;;;;;1.67;1.40;;;11.10;99.90;;;;;;5018604;28;20045;-75
2022/09/19 06:22:46;;;;;;;2.70;2.08;;;11.10;99.90;;;;;;5023572;28;20635;-75
2022/09/19 06:25:13;;;;;;;2.58;1.42;;;11.30;99.90;;;;;;5021388;28;20017;-75
2022/09/19 06:27:39;;;;;;;1.88;1.40;;;11.20;99.90;;;;;;5028425;28;20044;-75
2022/09/19 06:30:05;;;;;;;2.63;1.63;;;11.10;99.90;;;;;;5026182;28;20025;-76
2022/09/19 06:32:31;;;;;;;1.83;1.48;;;11.30;99.90;;;;;;5025003;28;20121;-75
2022/09/19 06:34:56;;;;;;;1.95;1.52;;;11.50;99.90;;;;;;5026906;28;20116;-75
2022/09/19 06:37:22;;;;;;;2.50;1.50;;;11.60;99.90;;;;;;5020350;28;20045;-76
2022/09/19 06:39:47;;;;;;;3.28;1.52;;;11.60;99.90;;;;;;5025128;28;20540;-76
2022/09/19 06:42:13;;;;;;;1.98;1.50;;;11.60;99.90;;;;;;5027847;28;20493;-76
2022/09/19 06:44:39;;;;;;;2.45;1.50;;;11.60;99.90;;;;;;5019065;28;20043;-74
2022/09/19 06:47:05;;;;;;;3.13;1.25;;;11.60;99.90;;;;;;5017398;28;20026;-75
2022/09/19 06:50:18;;;;;;;1.63;1.38;;;11.70;99.90;;;;;;5020199;28;20025;-75
2022/09/19 06:52:47;;;;;;;1.60;1.33;;;11.80;99.90;;;;;;5014039;28;20042;-74
2022/09/19 06:55:12;;;;;;;3.47;1.27;;;12.00;99.90;;;;;;5024621;28;20088;-76
2022/09/19 06:57:38;;;;;;;1.67;1.10;;;11.80;99.90;;;;;;5029044;28;20033;-75
2022/09/19 07:00:04;;;;;;;3.13;1.30;;;11.90;99.90;;;;;;5027769;28;20815;-75
2022/09/19 07:02:29;;;;;;;2.58;1.15;;;12.20;99.90;;;;;;5028474;28;20447;-75
2022/09/19 07:04:55;;;;;;;6.20;1.88;;;12.40;99.90;;;;;;5028369;28;20060;-76
2022/09/19 07:07:21;;;;;;;1.58;1.27;;;12.60;99.90;;;;;;5026804;28;20025;-75
2022/09/19 07:09:47;;;;;;;1.13;1.02;;;12.60;99.90;;;;;;5027907;28;20025;-76
2022/09/19 07:12:12;;;;;;;1.30;1.20;;;12.60;99.90;;;;;;5019957;28;20030;-75
2022/09/19 07:14:38;;;;;;;1.75;1.40;;;12.70;99.90;;;;;;5028396;28;20025;-75
2022/09/19 07:17:04;;;;;;;1.90;1.27;;;12.60;99.90;;;;;;5026572;28;20132;-76
2022/09/19 07:19:29;;;;;;;3.63;1.17;;;12.60;99.90;;;;;;5027498;28;20049;-75
2022/09/19 07:21:55;;;;;;;1.20;1.02;;;12.60;99.90;;;;;;5020815;28;20034;-76
2022/09/19 07:24:20;;;;;;;1.88;1.40;;;12.70;99.90;;;;;;5019226;28;20392;-75
2022/09/19 07:26:48;;;;;;;2.50;1.42;;;12.50;99.90;;;;;;5025892;28;20022;-75
2022/09/19 07:29:13;;;;;;;3.40;1.00;;;12.60;99.90;;;;;;5010236;28;20086;-76
2022/09/19 07:31:39;;;;;;;1.35;0.93;;;12.70;99.90;;;;;;5027354;28;20033;-75
2022/09/19 07:34:04;;;;;;;1.05;0.77;;;12.90;99.90;;;;;;5022704;28;20079;-76
2022/09/19 07:36:30;;;;;;;0.93;0.90;;;12.90;99.90;;;;;;5028340;28;20053;-75
2022/09/19 07:38:55;;;;;;;1.02;1.00;;;13.00;99.90;;;;;;5020518;28;20116;-75
2022/09/19 07:41:20;;;;;;;1.63;1.00;;;13.20;99.90;;;;;;5023583;28;20499;-75
2022/09/19 07:43:48;;;;;;;2.60;0.98;;;13.20;99.90;;;;;;5023188;28;20030;-75
2022/09/19 07:46:15;;;;;;;2.03;1.20;;;13.20;99.90;;;;;;5028010;28;20037;-75
2022/09/19 07:48:47;;;;;;;1.25;1.13;;;13.30;99.90;;;;;;5026322;28;20029;-76
2022/09/19 07:51:12;;;;;;;2.47;0.73;;;13.30;99.90;;;;;;5023357;28;20030;-74
2022/09/19 07:53:38;;;;;;;1.55;0.98;;;13.30;99.90;;;;;;5025741;28;20032;-75
2022/09/19 07:56:05;;;;;;;5.32;0.90;;;13.30;99.90;;;;;;5027514;28;20472;-75
2022/09/19 07:58:30;;;;;;;0.75;0.75;;;13.40;99.90;;;;;;5028137;28;20095;-75
2022/09/19 08:01:00;;;;;;;2.88;0.93;;;13.60;99.90;;;;;;5023365;28;20037;-76
2022/09/19 08:03:26;;;;;;;1.20;1.10;;;13.80;99.90;;;;;;5029865;28;20037;-74
2022/09/19 08:05:53;;;;;;;1.08;0.80;;;13.80;99.90;;;;;;5019987;28;20396;-75
2022/09/19 08:08:22;;;;;;;2.67;0.95;;;13.80;99.90;;;;;;4998571;28;20029;-79
2022/09/19 08:10:47;;;;;;;2.75;0.90;;;13.90;99.90;;;;;;5010968;28;20021;-78
2022/09/19 08:13:14;;;;;;;3.50;1.10;;;14.00;99.90;;;;;;5024161;28;20639;-78
2022/09/19 08:15:42;;;;;;;1.02;0.93;;;14.00;99.90;;;;;;5012097;28;20499;-79
2022/09/19 08:18:16;;;;;;;1.25;0.98;;;13.70;99.90;;;;;;5020400;28;20495;-82
2022/09/19 08:20:42;;;;;;;0.70;0.70;;;13.70;99.90;;;;;;4997612;28;20033;-81
2022/09/19 08:23:13;;;;;;;0.80;0.80;;;13.90;99.90;;;;;;5023143;28;20656;-84
2022/09/19 08:25:43;;;;;;;1.48;0.82;;;14.20;99.90;;;;;;5022005;28;20040;-82
2022/09/19 08:28:09;;;;;;;0.60;0.60;;;14.60;99.90;;;;;;5015878;28;20127;-83
2022/09/19 08:30:35;;;;;;;0.63;0.63;;;14.70;99.90;;;;;;5015630;28;20025;-84
2022/09/19 08:33:02;;;;;;;1.73;0.82;;;14.70;99.90;;;;;;5018313;28;20230;-83
2022/09/19 08:35:29;;;;;;;0.73;0.73;;;14.70;99.90;;;;;;5024290;28;20025;-83
2022/09/19 08:38:00;;;;;;;2.55;0.70;;;14.60;99.90;;;;;;5015881;28;20033;-77
2022/09/19 08:40:29;;;;;;;1.08;0.60;;;14.50;99.90;;;;;;5018502;28;20034;-77
2022/09/19 08:43:34;;;;;;;1.15;0.77;;;14.60;99.90;;;;;;5021412;28;20042;-78
2022/09/19 08:46:33;;;;;;;1.00;0.57;;;14.90;99.90;;;;;;5025830;28;20033;-78
2022/09/19 08:49:16;;;;;;;1.08;0.80;;;14.80;99.90;;;;;;5018411;28;20073;-79
2022/09/19 08:52:01;;;;;;;2.90;1.08;;;14.90;99.90;;;;;;5022896;28;20034;-76
2022/09/19 08:54:37;;;;;;;1.10;0.88;;;14.90;99.90;;;;;;5019189;28;20021;-76
2022/09/19 08:57:05;;;;;;;1.10;0.60;;;14.70;99.90;;;;;;5025341;28;20037;-77
2022/09/19 08:59:35;;;;;;;2.78;0.68;;;14.60;99.90;;;;;;5018843;28;20109;-77
2022/09/19 09:02:22;;;;;;;0.60;0.60;;;15.20;99.90;;;;;;5028520;28;20064;-76
2022/09/19 09:04:47;;;;;;;0.60;0.60;;;15.20;99.90;;;;;;5019569;28;20037;-76
2022/09/19 09:07:34;;;;;;;0.75;0.75;;;15.30;99.90;;;;;;5021591;28;20610;-76
2022/09/19 09:10:18;;;;;;;0.60;0.60;;;14.90;99.90;;;;;;5019498;28;20388;-78
2022/09/19 09:13:05;;;;;;;0.60;0.60;;;14.90;99.90;;;;;;5016734;28;20041;-77
2022/09/19 09:15:44;;;;;;;0.50;0.50;;;15.20;99.90;;;;;;5020847;28;20034;-77
2022/09/19 09:18:31;;;;;;;0.60;0.60;;;15.80;99.90;;;;;;5024158;28;20038;-75
2022/09/19 09:21:27;;;;;;;0.60;0.60;;;16.40;99.90;;;;;;5024249;28;20037;-75
2022/09/19 09:23:59;;;;;;;2.72;0.60;;;16.50;99.90;;;;;;5018531;28;20231;-78
2022/09/19 09:26:28;;;;;;;0.40;0.40;;;16.40;99.90;;;;;;5016728;28;20024;-76
2022/09/19 09:29:12;;;;;;;0.93;0.60;;;16.30;99.90;;;;;;5009482;28;20018;-77
2022/09/19 09:31:46;;;;;;;0.95;0.65;;;16.70;99.90;;;;;;5020771;28;20029;-76
2022/09/19 09:34:22;;;;;;;0.57;0.57;;;17.30;99.90;;;;;;5015816;28;20420;-76
2022/09/19 09:37:20;;;;;;;0.95;0.47;;;17.10;99.90;;;;;;5023389;28;20041;-76
2022/09/19 09:40:09;;;;;;;1.55;0.80;;;16.70;99.90;;;;;;4991962;28;20654;-77
2022/09/19 09:42:52;;;;;;;0.60;0.60;;;16.60;99.90;;;;;;5023146;28;20038;-76
2022/09/19 09:45:28;;;;;;;0.50;0.50;;;16.10;99.90;;;;;;5023843;28;20033;-76
2022/09/19 09:48:05;;;;;;;1.45;0.95;;;15.70;99.90;;;;;;5026768;28;20029;-78
2022/09/19 09:50:39;;;;;;;0.98;0.90;;;14.30;99.90;;;;;;5023046;28;20119;-80
2022/09/19 09:53:37;;;;;;;1.00;0.60;;;13.40;99.90;;;;;;5020476;28;20117;-81
2022/09/19 09:56:16;;;;;;;0.40;0.32;;;13.00;99.90;;;;;;5025326;28;20029;-79
2022/09/19 09:58:54;;;;;;;2.10;0.30;;;12.50;99.90;;;;;;5027171;28;20409;-79
2022/09/19 10:04:40;;;;;;;1.15;0.52;;;11.90;99.90;;;;;;5018540;28;20129;-80
2022/09/19 10:07:30;;;;;;;0.30;0.30;;;11.60;99.90;;;;;;5016989;28;20118;-79
2022/09/19 10:10:01;;;;;;;0.40;0.40;;;11.40;99.90;;;;;;5027845;28;20104;-79
2022/09/19 10:12:47;;;;;;;0.20;0.20;;;11.30;99.90;;;;;;5016497;28;20451;-79
2022/09/19 10:15:20;;;;;;;0.30;0.30;;;11.10;99.90;;;;;;5026575;28;20044;-81
2022/09/19 10:17:57;;;;;;;0.20;0.20;;;11.00;99.90;;;;;;5025579;28;20029;-78
2022/09/19 10:20:31;;;;;;;1.85;0.40;;;11.00;99.90;;;;;;5022582;28;20493;-80
2022/09/19 10:22:57;;;;;;;2.00;0.50;;;11.00;99.90;;;;;;5014449;28;20531;-81
2022/09/19 10:25:23;;;;;;;0.30;0.30;;;11.00;99.90;;;;;;5016828;28;20124;-79
2022/09/19 10:27:49;;;;;;;0.20;0.20;;;11.00;99.90;;;;;;5018931;28;20030;-78
2022/09/19 10:30:25;;;;;;;0.28;0.28;;;10.70;99.90;;;;;;5018807;28;20110;-79
2022/09/19 10:32:51;;;;;;;0.52;0.30;;;10.60;99.90;;;;;;5019501;28;20749;-79
2022/09/19 10:35:38;;;;;;;0.30;0.30;;;10.60;99.90;;;;;;5020026;28;20034;-79
2022/09/19 10:38:13;;;;;;;0.20;0.20;;;10.50;99.90;;;;;;5022325;28;20030;-79
2022/09/19 10:40:51;;;;;;;0.20;0.20;;;10.50;99.90;;;;;;5024144;28;20439;-79
2022/09/19 10:43:23;;;;;;;0.40;0.35;;;10.50;99.90;;;;;;5015402;28;20504;-78
2022/09/19 10:45:48;;;;;;;0.65;0.40;;;10.60;99.90;;;;;;5024827;28;20057;-79
2022/09/19 10:48:28;;;;;;;2.20;0.45;;;10.70;99.90;;;;;;5021460;28;20079;-78
2022/09/19 10:50:54;;;;;;;0.20;0.20;;;10.70;99.90;;;;;;5018620;28;20112;-78
2022/09/19 10:53:25;;;;;;;0.30;0.30;;;10.80;99.90;;;;;;5018362;28;20124;-79
2022/09/19 10:55:56;;;;;;;0.38;0.38;;;10.90;99.90;;;;;;5023885;28;20038;-79
2022/09/19 10:58:27;;;;;;;0.65;0.55;;;11.00;99.90;;;;;;5020130;28;20044;-79
2022/09/19 11:00:58;;;;;;;0.68;0.40;;;11.20;99.90;;;;;;5020594;28;20389;-83
2022/09/19 11:03:28;;;;;;;1.23;0.50;;;11.50;99.90;;;;;;5025259;28;20021;-79
2022/09/19 11:06:03;;;;;;;0.73;0.53;;;11.70;99.90;;;;;;5023888;28;20033;-81
2022/09/19 11:08:46;;;;;;;0.57;0.43;;;12.00;99.90;;;;;;5020483;28;20286;-80
2022/09/19 11:11:25;;;;;;;1.08;0.60;;;12.60;99.90;;;;;;5018902;28;20103;-80
2022/09/19 11:14:11;;;;;;;0.65;0.65;;;13.60;99.90;;;;;;5023369;28;20111;-81
2022/09/19 11:17:01;;;;;;;0.77;0.70;;;15.40;99.90;;;;;;5019459;28;20743;-83
2022/09/19 11:19:49;;;;;;;1.15;1.05;;;17.50;99.90;;;;;;5021801;28;20128;-80
2022/09/19 11:22:35;;;;;;;1.88;1.23;;;19.30;99.90;;;;;;5027628;28;20029;-81
2022/09/19 11:25:20;;;;;;;4.25;2.35;;;19.60;99.90;;;;;;5014307;28;20030;-80
2022/09/19 11:28:04;;;;;;;5.00;2.67;;;20.80;97.10;;;;;;5027222;28;20028;-79
2022/09/19 11:30:36;;;;;;;5.22;2.63;;;21.20;92.60;;;;;;5028669;28;20029;-79
2022/09/19 11:33:38;;;;;;;6.00;2.55;;;23.80;93.00;;;;;;5028255;28;20029;-79
2022/09/19 11:36:19;;;;;;;2.30;1.42;;;25.40;79.80;;;;;;5024839;28;20100;-79
2022/09/19 11:39:13;;;;;;;2.15;1.50;;;22.10;80.40;;;;;;5027590;28;20025;-80
2022/09/19 11:41:52;;;;;;;4.53;2.13;;;24.60;74.80;;;;;;5028212;28;20033;-78
2022/09/19 11:44:50;;;;;;;2.50;1.67;;;26.80;67.50;;;;;;5026070;28;20029;-79
2022/09/19 11:47:41;;;;;;;7.05;2.38;;;28.40;57.70;;;;;;5028406;28;20376;-78
2022/09/19 11:50:44;;;;;;;4.15;2.92;;;30.10;55.70;;;;;;5025923;28;20029;-79
2022/09/19 11:53:42;;;;;;;5.55;2.67;;;32.00;51.70;;;;;;5018942;28;20495;-79
2022/09/19 11:56:35;;;;;;;5.97;3.38;;;31.80;49.00;;;;;;5013250;28;20052;-81
2022/09/19 11:59:20;;;;;;;1.02;1.00;;;25.90;58.20;;;;;;5025758;28;20029;-79
2022/09/19 12:02:21;;;;;;;0.70;0.70;;;19.40;77.90;;;;;;5033924;28;20049;-80
2022/09/19 12:05:15;;;;;;;1.08;0.85;;;17.40;91.10;;;;;;5028489;28;20163;-80
2022/09/19 12:08:02;;;;;;;0.47;0.47;;;16.00;99.60;;;;;;5018142;28;20053;-80
2022/09/19 12:10:35;;;;;;;0.70;0.60;;;15.30;99.90;;;;;;5024031;28;20029;-79
2022/09/19 12:13:14;;;;;;;0.95;0.60;;;15.00;99.90;;;;;;5025541;28;20053;-80
2022/09/19 12:15:46;;;;;;;1.60;0.60;;;14.70;99.90;;;;;;5017839;28;20021;-80
2022/09/19 12:18:22;;;;;;;0.52;0.52;;;14.40;99.90;;;;;;5027767;28;20052;-79
2022/09/19 12:20:49;;;;;;;2.88;0.60;;;14.10;99.90;;;;;;5024867;28;20044;-81
2022/09/19 12:26:32;;;;;;;0.75;0.75;;;13.40;99.90;;;;;;5026436;28;20518;-80
2022/09/19 12:29:06;;;;;;;2.42;0.82;;;13.30;99.90;;;;;;5025484;28;20296;-79
2022/09/19 12:31:36;;;;;;;0.77;0.77;;;13.10;99.90;;;;;;5027981;28;20468;-80
2022/09/19 12:34:14;;;;;;;0.95;0.60;;;13.10;99.90;;;;;;5027929;28;20448;-80
2022/09/19 12:36:52;;;;;;;0.75;0.75;;;13.20;99.90;;;;;;5026162;28;20034;-79
2022/09/19 12:39:41;;;;;;;1.10;0.63;;;13.20;99.90;;;;;;5023809;28;20033;-80
2022/09/19 12:42:18;;;;;;;0.80;0.70;;;13.10;99.90;;;;;;4986967;28;20404;-80
2022/09/19 12:44:59;;;;;;;0.85;0.80;;;12.90;99.90;;;;;;5026861;28;20030;-79
2022/09/19 12:47:27;;;;;;;3.30;1.10;;;13.10;99.90;;;;;;5025183;28;20514;-79
2022/09/19 12:50:02;;;;;;;2.28;1.00;;;13.10;99.90;;;;;;5026313;28;20108;-80
2022/09/19 12:52:35;;;;;;;1.42;1.05;;;13.10;99.90;;;;;;5025818;28;20026;-81
2022/09/19 12:55:16;;;;;;;4.03;2.22;;;13.10;99.90;;;;;;5020410;28;20033;-80
2022/09/19 12:57:57;;;;;;;4.88;1.45;;;13.00;99.90;;;;;;5018743;28;20103;-80
2022/09/19 13:00:24;;;;;;;1.25;1.10;;;12.70;99.90;;;;;;5020969;28;20074;-82
2022/09/19 13:03:15;;;;;;;2.10;1.40;;;12.60;99.90;;;;;;5033613;28;20037;-79
2022/09/19 13:05:48;;;;;;;1.90;1.50;;;12.50;99.90;;;;;;5027217;28;20036;-82
2022/09/19 13:08:20;;;;;;;3.00;1.80;;;12.50;99.90;;;;;;5027342;28;20109;-80
2022/09/19 13:11:16;;;;;;;3.10;1.80;;;12.60;99.90;;;;;;5023342;28;20497;-79
2022/09/19 13:13:47;;;;;;;4.20;1.10;;;12.70;99.90;;;;;;5028957;28;20092;-81
2022/09/19 13:16:16;;;;;;;1.73;1.25;;;12.90;99.90;;;;;;5031400;28;20061;-79
2022/09/19 13:24:42;;;;;;;1.53;0.80;;;12.60;99.90;;;;;;5028742;28;20056;-80
2022/09/19 13:27:09;;;;;;;1.55;0.73;;;12.80;99.90;;;;;;5031316;28;20275;-79
2022/09/19 13:29:35;;;;;;;0.50;0.50;;;12.60;99.90;;;;;;5030836;28;20029;-80
2022/09/19 13:32:25;;;;;;;1.00;0.63;;;12.60;99.90;;;;;;5029041;28;20029;-80
2022/09/19 13:35:14;;;;;;;4.55;0.95;;;12.60;99.90;;;;;;5024578;28;20017;-82
2022/09/19 13:37:52;;;;;;;0.77;0.75;;;12.70;99.90;;;;;;5026337;28;20579;-79
2022/09/19 13:40:27;;;;;;;2.50;0.85;;;12.70;99.90;;;;;;5030875;28;20037;-80
2022/09/19 13:42:58;;;;;;;0.55;0.55;;;12.70;99.90;;;;;;5030835;28;20108;-81